sensor_id;sensor_type;location;lat;lon;timestamp;P1;durP1;ratioP1;P2;durP2;ratioP2
9524;SDS011;15940;48.734;9.112;2022-09-27T00:01:22;0.90;;;0.90;;
9524;SDS011;15940;48.734;9.112;2022-09-27T00:03:51;1.47;;;1.07;;
9524;SDS011;15940;48.734;9.112;2022-09-27T00:06:21;0.93;;;0.93;;
9524;SDS011;15940;48.734;9.112;2022-09-27T00:08:50;1.80;;;1.00;;
9524;SDS011;15940;48.734;9.112;2022-09-27T00:11:19;0.93;;;0.93;;
9524;SDS011;15940;48.734;9.112;2022-09-27T00:13:52;1.03;;;0.80;;
9524;SDS011;15940;48.734;9.112;2022-09-27T00:16:21;0.70;;;0.70;;
9524;SDS011;15940;48.734;9.112;2022-09-27T00:18:48;1.63;;;1.00;;
9524;SDS011;15940;48.734;9.112;2022-09-27T00:21:16;0.90;;;0.90;;
9524;SDS011;15940;48.734;9.112;2022-09-27T00:23:42;0.73;;;0.73;;
9524;SDS011;15940;48.734;9.112;2022-09-27T00:26:10;1.17;;;0.93;;
9524;SDS011;15940;48.734;9.112;2022-09-27T00:28:38;0.80;;;0.80;;
9524;SDS011;15940;48.734;9.112;2022-09-27T00:31:10;0.80;;;0.80;;
9524;SDS011;15940;48.734;9.112;2022-09-27T00:33:46;0.87;;;0.87;;
9524;SDS011;15940;48.734;9.112;2022-09-27T00:36:15;0.80;;;0.80;;
9524;SDS011;15940;48.734;9.112;2022-09-27T00:38:42;1.33;;;0.90;;
9524;SDS011;15940;48.734;9.112;2022-09-27T00:41:11;1.20;;;0.93;;
9524;SDS011;15940;48.734;9.112;2022-09-27T00:43:42;2.60;;;1.00;;
9524;SDS011;15940;48.734;9.112;2022-09-27T00:46:12;0.80;;;0.80;;
9524;SDS011;15940;48.734;9.112;2022-09-27T00:48:44;0.73;;;0.73;;
9524;SDS011;15940;48.734;9.112;2022-09-27T00:51:13;0.90;;;0.63;;
9524;SDS011;15940;48.734;9.112;2022-09-27T00:53:42;0.70;;;0.70;;
9524;SDS011;15940;48.734;9.112;2022-09-27T00:56:16;0.90;;;0.90;;
9524;SDS011;15940;48.734;9.112;2022-09-27T00:58:47;0.73;;;0.73;;
9524;SDS011;15940;48.734;9.112;2022-09-27T01:01:21;0.93;;;0.93;;
9524;SDS011;15940;48.734;9.112;2022-09-27T01:03:51;1.90;;;0.90;;
9524;SDS011;15940;48.734;9.112;2022-09-27T01:06:25;0.83;;;0.83;;
9524;SDS011;15940;48.734;9.112;2022-09-27T01:08:52;0.70;;;0.70;;
9524;SDS011;15940;48.734;9.112;2022-09-27T01:11:22;0.90;;;0.90;;
9524;SDS011;15940;48.734;9.112;2022-09-27T01:14:03;0.67;;;0.67;;
9524;SDS011;15940;48.734;9.112;2022-09-27T01:17:09;1.07;;;0.90;;
9524;SDS011;15940;48.734;9.112;2022-09-27T01:23:06;0.83;;;0.83;;
9524;SDS011;15940;48.734;9.112;2022-09-27T01:26:10;1.03;;;0.93;;
9524;SDS011;15940;48.734;9.112;2022-09-27T01:28:51;1.80;;;0.80;;
9524;SDS011;15940;48.734;9.112;2022-09-27T01:31:31;2.27;;;0.90;;
9524;SDS011;15940;48.734;9.112;2022-09-27T01:34:06;0.80;;;0.80;;
9524;SDS011;15940;48.734;9.112;2022-09-27T01:36:46;6.83;;;0.90;;
9524;SDS011;15940;48.734;9.112;2022-09-27T01:39:21;0.90;;;0.90;;
9524;SDS011;15940;48.734;9.112;2022-09-27T01:42:03;0.90;;;0.90;;
9524;SDS011;15940;48.734;9.112;2022-09-27T01:44:38;0.63;;;0.63;;
9524;SDS011;15940;48.734;9.112;2022-09-27T01:47:15;0.70;;;0.70;;
9524;SDS011;15940;48.734;9.112;2022-09-27T01:49:47;0.70;;;0.70;;
9524;SDS011;15940;48.734;9.112;2022-09-27T01:52:22;0.80;;;0.80;;
9524;SDS011;15940;48.734;9.112;2022-09-27T01:54:55;5.43;;;0.90;;
9524;SDS011;15940;48.734;9.112;2022-09-27T01:57:29;1.70;;;0.60;;
9524;SDS011;15940;48.734;9.112;2022-09-27T02:00:01;0.60;;;0.60;;
9524;SDS011;15940;48.734;9.112;2022-09-27T02:02:35;0.70;;;0.70;;
9524;SDS011;15940;48.734;9.112;2022-09-27T02:05:07;1.57;;;0.70;;
9524;SDS011;15940;48.734;9.112;2022-09-27T02:07:42;1.80;;;0.83;;
9524;SDS011;15940;48.734;9.112;2022-09-27T02:10:17;0.60;;;0.60;;
9524;SDS011;15940;48.734;9.112;2022-09-27T02:12:50;1.87;;;0.80;;
9524;SDS011;15940;48.734;9.112;2022-09-27T02:15:22;1.90;;;0.80;;
9524;SDS011;15940;48.734;9.112;2022-09-27T02:17:54;0.97;;;0.97;;
9524;SDS011;15940;48.734;9.112;2022-09-27T02:20:28;0.80;;;0.80;;
9524;SDS011;15940;48.734;9.112;2022-09-27T02:23:03;1.50;;;1.20;;
9524;SDS011;15940;48.734;9.112;2022-09-27T02:25:40;1.60;;;0.70;;
9524;SDS011;15940;48.734;9.112;2022-09-27T02:28:13;0.63;;;0.63;;
9524;SDS011;15940;48.734;9.112;2022-09-27T02:30:50;0.87;;;0.83;;
9524;SDS011;15940;48.734;9.112;2022-09-27T02:33:19;1.13;;;0.83;;
9524;SDS011;15940;48.734;9.112;2022-09-27T02:35:51;1.40;;;0.67;;
9524;SDS011;15940;48.734;9.112;2022-09-27T02:38:18;0.60;;;0.60;;
9524;SDS011;15940;48.734;9.112;2022-09-27T02:40:46;0.70;;;0.60;;
9524;SDS011;15940;48.734;9.112;2022-09-27T02:43:13;1.57;;;0.50;;
9524;SDS011;15940;48.734;9.112;2022-09-27T02:45:47;1.33;;;0.70;;
9524;SDS011;15940;48.734;9.112;2022-09-27T02:48:29;1.00;;;0.50;;
9524;SDS011;15940;48.734;9.112;2022-09-27T02:51:06;0.77;;;0.67;;
9524;SDS011;15940;48.734;9.112;2022-09-27T02:53:51;0.70;;;0.50;;
9524;SDS011;15940;48.734;9.112;2022-09-27T02:56:33;2.13;;;0.70;;
9524;SDS011;15940;48.734;9.112;2022-09-27T02:59:11;4.30;;;0.70;;
9524;SDS011;15940;48.734;9.112;2022-09-27T03:01:47;1.80;;;0.60;;
9524;SDS011;15940;48.734;9.112;2022-09-27T03:04:29;0.77;;;0.60;;
9524;SDS011;15940;48.734;9.112;2022-09-27T03:07:05;0.93;;;0.50;;
9524;SDS011;15940;48.734;9.112;2022-09-27T03:09:39;0.63;;;0.40;;
9524;SDS011;15940;48.734;9.112;2022-09-27T03:12:09;0.80;;;0.60;;
9524;SDS011;15940;48.734;9.112;2022-09-27T03:14:37;0.80;;;0.50;;
9524;SDS011;15940;48.734;9.112;2022-09-27T03:17:04;0.80;;;0.60;;
9524;SDS011;15940;48.734;9.112;2022-09-27T03:19:32;0.50;;;0.50;;
9524;SDS011;15940;48.734;9.112;2022-09-27T03:21:59;0.47;;;0.47;;
9524;SDS011;15940;48.734;9.112;2022-09-27T03:24:26;0.80;;;0.50;;
9524;SDS011;15940;48.734;9.112;2022-09-27T03:26:52;0.80;;;0.67;;
9524;SDS011;15940;48.734;9.112;2022-09-27T03:29:19;1.70;;;0.80;;
9524;SDS011;15940;48.734;9.112;2022-09-27T03:31:46;1.37;;;0.80;;
9524;SDS011;15940;48.734;9.112;2022-09-27T03:34:13;1.30;;;0.80;;
9524;SDS011;15940;48.734;9.112;2022-09-27T03:36:41;2.63;;;1.00;;
9524;SDS011;15940;48.734;9.112;2022-09-27T03:39:09;2.67;;;1.10;;
9524;SDS011;15940;48.734;9.112;2022-09-27T03:41:36;2.17;;;1.10;;
9524;SDS011;15940;48.734;9.112;2022-09-27T03:44:03;2.60;;;1.20;;
9524;SDS011;15940;48.734;9.112;2022-09-27T03:46:30;2.73;;;1.10;;
9524;SDS011;15940;48.734;9.112;2022-09-27T03:48:56;1.77;;;1.13;;
9524;SDS011;15940;48.734;9.112;2022-09-27T03:51:23;2.10;;;0.90;;
9524;SDS011;15940;48.734;9.112;2022-09-27T03:53:52;2.20;;;1.30;;
9524;SDS011;15940;48.734;9.112;2022-09-27T03:56:19;2.60;;;1.10;;
9524;SDS011;15940;48.734;9.112;2022-09-27T03:58:46;1.70;;;1.00;;
9524;SDS011;15940;48.734;9.112;2022-09-27T04:01:13;1.77;;;1.13;;
9524;SDS011;15940;48.734;9.112;2022-09-27T04:03:40;1.80;;;1.10;;
9524;SDS011;15940;48.734;9.112;2022-09-27T04:06:07;4.33;;;1.77;;
9524;SDS011;15940;48.734;9.112;2022-09-27T04:08:34;2.20;;;1.37;;
9524;SDS011;15940;48.734;9.112;2022-09-27T04:11:02;2.27;;;1.30;;
9524;SDS011;15940;48.734;9.112;2022-09-27T04:13:29;2.20;;;1.50;;
9524;SDS011;15940;48.734;9.112;2022-09-27T04:15:56;4.83;;;1.67;;
9524;SDS011;15940;48.734;9.112;2022-09-27T04:18:23;3.20;;;1.57;;
9524;SDS011;15940;48.734;9.112;2022-09-27T04:20:50;2.80;;;1.63;;
9524;SDS011;15940;48.734;9.112;2022-09-27T04:23:17;4.63;;;2.03;;
9524;SDS011;15940;48.734;9.112;2022-09-27T04:25:44;2.17;;;1.67;;
9524;SDS011;15940;48.734;9.112;2022-09-27T04:28:13;2.60;;;1.70;;
9524;SDS011;15940;48.734;9.112;2022-09-27T04:30:40;6.53;;;1.90;;
9524;SDS011;15940;48.734;9.112;2022-09-27T04:33:06;4.77;;;1.80;;
9524;SDS011;15940;48.734;9.112;2022-09-27T04:35:33;3.73;;;1.90;;
9524;SDS011;15940;48.734;9.112;2022-09-27T04:38:18;3.67;;;1.90;;
9524;SDS011;15940;48.734;9.112;2022-09-27T04:40:47;5.20;;;1.70;;
9524;SDS011;15940;48.734;9.112;2022-09-27T04:43:15;3.53;;;1.73;;
9524;SDS011;15940;48.734;9.112;2022-09-27T04:45:43;4.40;;;1.90;;
9524;SDS011;15940;48.734;9.112;2022-09-27T04:48:10;1.73;;;1.33;;
9524;SDS011;15940;48.734;9.112;2022-09-27T04:50:37;4.57;;;1.60;;
9524;SDS011;15940;48.734;9.112;2022-09-27T04:53:05;3.20;;;1.63;;
9524;SDS011;15940;48.734;9.112;2022-09-27T04:55:32;2.40;;;1.50;;
9524;SDS011;15940;48.734;9.112;2022-09-27T04:57:59;4.20;;;2.03;;
9524;SDS011;15940;48.734;9.112;2022-09-27T05:00:28;4.00;;;1.80;;
9524;SDS011;15940;48.734;9.112;2022-09-27T05:02:55;3.67;;;1.70;;
9524;SDS011;15940;48.734;9.112;2022-09-27T05:05:22;3.17;;;1.50;;
9524;SDS011;15940;48.734;9.112;2022-09-27T05:07:49;3.67;;;1.83;;
9524;SDS011;15940;48.734;9.112;2022-09-27T05:10:16;5.90;;;1.70;;
9524;SDS011;15940;48.734;9.112;2022-09-27T05:12:43;3.93;;;2.00;;
9524;SDS011;15940;48.734;9.112;2022-09-27T05:15:10;4.20;;;1.70;;
9524;SDS011;15940;48.734;9.112;2022-09-27T05:17:38;5.30;;;1.73;;
9524;SDS011;15940;48.734;9.112;2022-09-27T05:20:06;2.20;;;1.50;;
9524;SDS011;15940;48.734;9.112;2022-09-27T05:22:34;8.30;;;1.90;;
9524;SDS011;15940;48.734;9.112;2022-09-27T05:25:01;4.23;;;1.93;;
9524;SDS011;15940;48.734;9.112;2022-09-27T05:27:29;3.93;;;2.10;;
9524;SDS011;15940;48.734;9.112;2022-09-27T05:29:56;2.47;;;1.80;;
9524;SDS011;15940;48.734;9.112;2022-09-27T05:32:25;3.63;;;2.10;;
9524;SDS011;15940;48.734;9.112;2022-09-27T05:34:54;1.70;;;1.43;;
9524;SDS011;15940;48.734;9.112;2022-09-27T05:37:21;3.97;;;1.80;;
9524;SDS011;15940;48.734;9.112;2022-09-27T05:39:48;5.87;;;2.40;;
9524;SDS011;15940;48.734;9.112;2022-09-27T05:42:15;2.10;;;1.73;;
9524;SDS011;15940;48.734;9.112;2022-09-27T05:44:43;3.13;;;2.10;;
9524;SDS011;15940;48.734;9.112;2022-09-27T05:47:11;4.83;;;1.97;;
9524;SDS011;15940;48.734;9.112;2022-09-27T05:49:39;4.47;;;1.90;;
9524;SDS011;15940;48.734;9.112;2022-09-27T05:52:08;5.10;;;2.00;;
9524;SDS011;15940;48.734;9.112;2022-09-27T05:54:35;2.03;;;1.57;;
9524;SDS011;15940;48.734;9.112;2022-09-27T05:57:02;3.00;;;1.60;;
9524;SDS011;15940;48.734;9.112;2022-09-27T05:59:32;3.30;;;1.30;;
9524;SDS011;15940;48.734;9.112;2022-09-27T06:01:59;1.37;;;1.27;;
9524;SDS011;15940;48.734;9.112;2022-09-27T06:04:25;1.73;;;1.63;;
9524;SDS011;15940;48.734;9.112;2022-09-27T06:06:52;3.67;;;1.60;;
9524;SDS011;15940;48.734;9.112;2022-09-27T06:09:24;3.43;;;1.70;;
9524;SDS011;15940;48.734;9.112;2022-09-27T06:11:52;3.57;;;1.50;;
9524;SDS011;15940;48.734;9.112;2022-09-27T06:14:19;2.10;;;1.70;;
9524;SDS011;15940;48.734;9.112;2022-09-27T06:16:46;3.10;;;1.70;;
9524;SDS011;15940;48.734;9.112;2022-09-27T06:19:13;1.97;;;1.73;;
9524;SDS011;15940;48.734;9.112;2022-09-27T06:21:40;2.37;;;1.60;;
9524;SDS011;15940;48.734;9.112;2022-09-27T06:24:08;1.73;;;1.63;;
9524;SDS011;15940;48.734;9.112;2022-09-27T06:26:36;2.27;;;1.17;;
9524;SDS011;15940;48.734;9.112;2022-09-27T06:29:03;1.53;;;1.10;;
9524;SDS011;15940;48.734;9.112;2022-09-27T06:31:30;1.20;;;1.10;;
9524;SDS011;15940;48.734;9.112;2022-09-27T06:33:57;2.13;;;1.10;;
9524;SDS011;15940;48.734;9.112;2022-09-27T06:36:24;1.40;;;1.30;;
9524;SDS011;15940;48.734;9.112;2022-09-27T06:38:51;1.40;;;1.00;;
9524;SDS011;15940;48.734;9.112;2022-09-27T06:41:18;1.70;;;1.20;;
9524;SDS011;15940;48.734;9.112;2022-09-27T06:43:48;1.67;;;1.00;;
9524;SDS011;15940;48.734;9.112;2022-09-27T06:46:15;0.80;;;0.80;;
9524;SDS011;15940;48.734;9.112;2022-09-27T06:48:41;2.63;;;1.10;;
9524;SDS011;15940;48.734;9.112;2022-09-27T06:51:08;1.13;;;1.03;;
9524;SDS011;15940;48.734;9.112;2022-09-27T06:53:35;3.37;;;1.00;;
9524;SDS011;15940;48.734;9.112;2022-09-27T06:56:02;0.80;;;0.80;;
9524;SDS011;15940;48.734;9.112;2022-09-27T06:58:29;1.23;;;0.90;;
9524;SDS011;15940;48.734;9.112;2022-09-27T07:01:15;1.23;;;1.00;;
9524;SDS011;15940;48.734;9.112;2022-09-27T07:03:42;1.60;;;0.80;;
9524;SDS011;15940;48.734;9.112;2022-09-27T07:06:15;0.80;;;0.77;;
9524;SDS011;15940;48.734;9.112;2022-09-27T07:08:44;0.50;;;0.50;;
9524;SDS011;15940;48.734;9.112;2022-09-27T07:11:15;1.43;;;0.80;;
9524;SDS011;15940;48.734;9.112;2022-09-27T07:13:42;0.47;;;0.47;;
9524;SDS011;15940;48.734;9.112;2022-09-27T07:16:10;1.47;;;0.50;;
9524;SDS011;15940;48.734;9.112;2022-09-27T07:18:39;0.57;;;0.50;;
9524;SDS011;15940;48.734;9.112;2022-09-27T07:21:07;0.60;;;0.60;;
9524;SDS011;15940;48.734;9.112;2022-09-27T07:23:36;0.60;;;0.60;;
9524;SDS011;15940;48.734;9.112;2022-09-27T07:26:03;0.60;;;0.60;;
9524;SDS011;15940;48.734;9.112;2022-09-27T07:28:32;1.17;;;0.80;;
9524;SDS011;15940;48.734;9.112;2022-09-27T07:31:00;0.70;;;0.70;;
9524;SDS011;15940;48.734;9.112;2022-09-27T07:33:28;0.60;;;0.57;;
9524;SDS011;15940;48.734;9.112;2022-09-27T07:35:57;0.50;;;0.50;;
9524;SDS011;15940;48.734;9.112;2022-09-27T07:38:24;1.00;;;0.90;;
9524;SDS011;15940;48.734;9.112;2022-09-27T07:40:51;1.20;;;0.80;;
9524;SDS011;15940;48.734;9.112;2022-09-27T07:43:18;0.90;;;0.73;;
9524;SDS011;15940;48.734;9.112;2022-09-27T07:45:45;1.00;;;0.87;;
9524;SDS011;15940;48.734;9.112;2022-09-27T07:48:13;0.60;;;0.60;;
9524;SDS011;15940;48.734;9.112;2022-09-27T07:50:41;1.53;;;0.70;;
9524;SDS011;15940;48.734;9.112;2022-09-27T07:53:09;0.43;;;0.43;;
9524;SDS011;15940;48.734;9.112;2022-09-27T07:55:37;1.23;;;0.60;;
9524;SDS011;15940;48.734;9.112;2022-09-27T07:58:07;0.53;;;0.53;;
9524;SDS011;15940;48.734;9.112;2022-09-27T08:00:36;1.20;;;0.67;;
9524;SDS011;15940;48.734;9.112;2022-09-27T08:03:05;0.50;;;0.50;;
9524;SDS011;15940;48.734;9.112;2022-09-27T08:05:32;0.73;;;0.67;;
9524;SDS011;15940;48.734;9.112;2022-09-27T08:08:01;1.63;;;0.60;;
9524;SDS011;15940;48.734;9.112;2022-09-27T08:10:30;0.60;;;0.60;;
9524;SDS011;15940;48.734;9.112;2022-09-27T08:12:59;1.57;;;0.80;;
9524;SDS011;15940;48.734;9.112;2022-09-27T08:15:28;2.93;;;0.77;;
9524;SDS011;15940;48.734;9.112;2022-09-27T08:17:56;0.73;;;0.60;;
9524;SDS011;15940;48.734;9.112;2022-09-27T08:20:23;0.40;;;0.40;;
9524;SDS011;15940;48.734;9.112;2022-09-27T08:22:50;0.53;;;0.53;;
9524;SDS011;15940;48.734;9.112;2022-09-27T08:25:17;0.83;;;0.67;;
9524;SDS011;15940;48.734;9.112;2022-09-27T08:27:54;1.83;;;0.67;;
9524;SDS011;15940;48.734;9.112;2022-09-27T08:30:21;1.03;;;0.50;;
9524;SDS011;15940;48.734;9.112;2022-09-27T08:32:53;0.57;;;0.57;;
9524;SDS011;15940;48.734;9.112;2022-09-27T08:35:21;1.00;;;0.70;;
9524;SDS011;15940;48.734;9.112;2022-09-27T08:37:52;0.53;;;0.53;;
9524;SDS011;15940;48.734;9.112;2022-09-27T08:40:20;1.10;;;0.60;;
9524;SDS011;15940;48.734;9.112;2022-09-27T08:42:55;1.23;;;0.67;;
9524;SDS011;15940;48.734;9.112;2022-09-27T08:45:36;1.53;;;0.90;;
9524;SDS011;15940;48.734;9.112;2022-09-27T08:48:12;0.60;;;0.60;;
9524;SDS011;15940;48.734;9.112;2022-09-27T08:50:43;0.77;;;0.43;;
9524;SDS011;15940;48.734;9.112;2022-09-27T08:53:15;1.17;;;0.90;;
9524;SDS011;15940;48.734;9.112;2022-09-27T08:55:49;2.00;;;0.87;;
9524;SDS011;15940;48.734;9.112;2022-09-27T08:58:21;1.00;;;0.90;;
9524;SDS011;15940;48.734;9.112;2022-09-27T09:00:52;1.40;;;1.00;;
9524;SDS011;15940;48.734;9.112;2022-09-27T09:03:22;0.60;;;0.60;;
9524;SDS011;15940;48.734;9.112;2022-09-27T09:05:56;0.60;;;0.60;;
9524;SDS011;15940;48.734;9.112;2022-09-27T09:08:41;0.53;;;0.53;;
9524;SDS011;15940;48.734;9.112;2022-09-27T09:11:25;0.70;;;0.70;;
9524;SDS011;15940;48.734;9.112;2022-09-27T09:17:33;0.73;;;0.40;;
9524;SDS011;15940;48.734;9.112;2022-09-27T09:20:15;0.70;;;0.70;;
9524;SDS011;15940;48.734;9.112;2022-09-27T09:23:02;0.50;;;0.50;;
9524;SDS011;15940;48.734;9.112;2022-09-27T09:26:06;0.40;;;0.40;;
9524;SDS011;15940;48.734;9.112;2022-09-27T09:28:46;2.60;;;0.60;;
9524;SDS011;15940;48.734;9.112;2022-09-27T09:31:27;0.77;;;0.70;;
9524;SDS011;15940;48.734;9.112;2022-09-27T09:34:04;2.60;;;0.70;;
9524;SDS011;15940;48.734;9.112;2022-09-27T09:36:40;0.63;;;0.63;;
9524;SDS011;15940;48.734;9.112;2022-09-27T09:39:13;1.23;;;0.70;;
9524;SDS011;15940;48.734;9.112;2022-09-27T09:41:47;0.63;;;0.53;;
9524;SDS011;15940;48.734;9.112;2022-09-27T09:44:30;0.60;;;0.57;;
9524;SDS011;15940;48.734;9.112;2022-09-27T09:47:04;1.30;;;0.90;;
9524;SDS011;15940;48.734;9.112;2022-09-27T09:49:45;0.73;;;0.73;;
9524;SDS011;15940;48.734;9.112;2022-09-27T09:52:17;1.00;;;0.83;;
9524;SDS011;15940;48.734;9.112;2022-09-27T09:54:49;0.60;;;0.60;;
9524;SDS011;15940;48.734;9.112;2022-09-27T09:57:22;0.93;;;0.70;;
9524;SDS011;15940;48.734;9.112;2022-09-27T09:59:56;1.23;;;1.07;;
9524;SDS011;15940;48.734;9.112;2022-09-27T10:02:30;2.10;;;1.10;;
9524;SDS011;15940;48.734;9.112;2022-09-27T10:05:00;1.40;;;1.00;;
9524;SDS011;15940;48.734;9.112;2022-09-27T10:07:28;2.97;;;1.07;;
9524;SDS011;15940;48.734;9.112;2022-09-27T10:09:58;1.10;;;1.00;;
9524;SDS011;15940;48.734;9.112;2022-09-27T10:12:27;1.07;;;1.03;;
9524;SDS011;15940;48.734;9.112;2022-09-27T10:14:56;1.10;;;1.00;;
9524;SDS011;15940;48.734;9.112;2022-09-27T10:17:27;1.27;;;1.10;;
9524;SDS011;15940;48.734;9.112;2022-09-27T10:20:04;1.73;;;1.10;;
9524;SDS011;15940;48.734;9.112;2022-09-27T10:22:33;1.20;;;1.00;;
9524;SDS011;15940;48.734;9.112;2022-09-27T10:25:04;3.43;;;1.20;;
9524;SDS011;15940;48.734;9.112;2022-09-27T10:27:37;1.27;;;1.00;;
9524;SDS011;15940;48.734;9.112;2022-09-27T10:30:13;1.47;;;1.10;;
9524;SDS011;15940;48.734;9.112;2022-09-27T10:32:50;1.80;;;1.20;;
9524;SDS011;15940;48.734;9.112;2022-09-27T10:35:28;1.30;;;1.00;;
9524;SDS011;15940;48.734;9.112;2022-09-27T10:38:11;1.47;;;1.03;;
9524;SDS011;15940;48.734;9.112;2022-09-27T10:40:48;3.50;;;1.10;;
9524;SDS011;15940;48.734;9.112;2022-09-27T10:43:24;1.23;;;1.00;;
9524;SDS011;15940;48.734;9.112;2022-09-27T10:45:58;1.00;;;0.90;;
9524;SDS011;15940;48.734;9.112;2022-09-27T10:48:39;3.13;;;1.13;;
9524;SDS011;15940;48.734;9.112;2022-09-27T10:51:15;2.43;;;1.30;;
9524;SDS011;15940;48.734;9.112;2022-09-27T10:53:49;1.67;;;0.87;;
9524;SDS011;15940;48.734;9.112;2022-09-27T10:56:20;2.03;;;1.30;;
9524;SDS011;15940;48.734;9.112;2022-09-27T10:58:49;2.77;;;1.10;;
9524;SDS011;15940;48.734;9.112;2022-09-27T11:01:17;1.17;;;1.07;;
9524;SDS011;15940;48.734;9.112;2022-09-27T11:03:47;2.77;;;1.10;;
9524;SDS011;15940;48.734;9.112;2022-09-27T11:06:19;3.00;;;1.20;;
9524;SDS011;15940;48.734;9.112;2022-09-27T11:09:15;1.70;;;1.00;;
9524;SDS011;15940;48.734;9.112;2022-09-27T11:11:48;1.33;;;1.20;;
9524;SDS011;15940;48.734;9.112;2022-09-27T11:14:17;2.07;;;0.83;;
9524;SDS011;15940;48.734;9.112;2022-09-27T11:16:54;1.87;;;1.07;;
9524;SDS011;15940;48.734;9.112;2022-09-27T11:19:39;1.00;;;1.00;;
9524;SDS011;15940;48.734;9.112;2022-09-27T11:22:26;0.80;;;0.80;;
9524;SDS011;15940;48.734;9.112;2022-09-27T11:25:14;2.73;;;1.00;;
9524;SDS011;15940;48.734;9.112;2022-09-27T11:27:56;2.57;;;0.90;;
9524;SDS011;15940;48.734;9.112;2022-09-27T11:30:33;1.87;;;0.93;;
9524;SDS011;15940;48.734;9.112;2022-09-27T11:33:15;1.80;;;0.87;;
9524;SDS011;15940;48.734;9.112;2022-09-27T11:36:21;0.60;;;0.60;;
9524;SDS011;15940;48.734;9.112;2022-09-27T11:39:08;0.80;;;0.80;;
9524;SDS011;15940;48.734;9.112;2022-09-27T11:41:54;0.90;;;0.77;;
9524;SDS011;15940;48.734;9.112;2022-09-27T11:44:43;2.23;;;0.93;;
9524;SDS011;15940;48.734;9.112;2022-09-27T11:47:20;0.97;;;0.80;;
9524;SDS011;15940;48.734;9.112;2022-09-27T11:50:02;2.33;;;0.90;;
9524;SDS011;15940;48.734;9.112;2022-09-27T11:52:57;0.70;;;0.70;;
9524;SDS011;15940;48.734;9.112;2022-09-27T11:55:42;1.80;;;0.90;;
9524;SDS011;15940;48.734;9.112;2022-09-27T11:58:20;1.43;;;1.10;;
9524;SDS011;15940;48.734;9.112;2022-09-27T12:00:59;1.07;;;0.90;;
9524;SDS011;15940;48.734;9.112;2022-09-27T12:03:51;0.63;;;0.63;;
9524;SDS011;15940;48.734;9.112;2022-09-27T12:06:53;1.77;;;0.90;;
9524;SDS011;15940;48.734;9.112;2022-09-27T12:09:32;1.03;;;0.70;;
9524;SDS011;15940;48.734;9.112;2022-09-27T12:12:05;7.03;;;0.97;;
9524;SDS011;15940;48.734;9.112;2022-09-27T12:14:41;1.80;;;1.20;;
9524;SDS011;15940;48.734;9.112;2022-09-27T12:17:11;3.97;;;0.80;;
9524;SDS011;15940;48.734;9.112;2022-09-27T12:19:42;1.27;;;0.90;;
9524;SDS011;15940;48.734;9.112;2022-09-27T12:22:15;4.43;;;0.90;;
9524;SDS011;15940;48.734;9.112;2022-09-27T12:24:48;1.03;;;0.77;;
9524;SDS011;15940;48.734;9.112;2022-09-27T12:27:18;1.23;;;0.80;;
9524;SDS011;15940;48.734;9.112;2022-09-27T12:30:00;0.87;;;0.77;;
9524;SDS011;15940;48.734;9.112;2022-09-27T12:32:31;1.17;;;0.80;;
9524;SDS011;15940;48.734;9.112;2022-09-27T12:35:09;1.03;;;0.80;;
9524;SDS011;15940;48.734;9.112;2022-09-27T12:37:45;1.57;;;0.80;;
9524;SDS011;15940;48.734;9.112;2022-09-27T12:40:20;0.60;;;0.60;;
9524;SDS011;15940;48.734;9.112;2022-09-27T12:42:52;1.20;;;0.70;;
9524;SDS011;15940;48.734;9.112;2022-09-27T12:45:27;0.67;;;0.60;;
9524;SDS011;15940;48.734;9.112;2022-09-27T12:48:10;0.50;;;0.50;;
9524;SDS011;15940;48.734;9.112;2022-09-27T12:50:47;1.47;;;0.80;;
9524;SDS011;15940;48.734;9.112;2022-09-27T12:53:18;2.70;;;0.90;;
9524;SDS011;15940;48.734;9.112;2022-09-27T12:56:07;0.70;;;0.67;;
9524;SDS011;15940;48.734;9.112;2022-09-27T12:58:59;1.80;;;0.70;;
9524;SDS011;15940;48.734;9.112;2022-09-27T13:02:15;0.63;;;0.63;;
9524;SDS011;15940;48.734;9.112;2022-09-27T13:05:21;1.33;;;0.80;;
9524;SDS011;15940;48.734;9.112;2022-09-27T13:08:29;1.47;;;0.73;;
9524;SDS011;15940;48.734;9.112;2022-09-27T13:11:19;0.80;;;0.70;;
9524;SDS011;15940;48.734;9.112;2022-09-27T13:13:54;2.77;;;0.50;;
9524;SDS011;15940;48.734;9.112;2022-09-27T13:16:23;1.23;;;0.97;;
9524;SDS011;15940;48.734;9.112;2022-09-27T13:18:52;1.27;;;0.90;;
9524;SDS011;15940;48.734;9.112;2022-09-27T13:36:18;0.87;;;0.87;;
9524;SDS011;15940;48.734;9.112;2022-09-27T13:39:01;1.17;;;0.90;;
9524;SDS011;15940;48.734;9.112;2022-09-27T13:45:05;0.90;;;0.70;;
9524;SDS011;15940;48.734;9.112;2022-09-27T13:47:50;1.40;;;0.80;;
9524;SDS011;15940;48.734;9.112;2022-09-27T13:50:23;0.60;;;0.60;;
9524;SDS011;15940;48.734;9.112;2022-09-27T13:52:56;1.40;;;0.97;;
9524;SDS011;15940;48.734;9.112;2022-09-27T13:55:38;1.30;;;0.90;;
9524;SDS011;15940;48.734;9.112;2022-09-27T13:58:14;1.90;;;0.90;;
9524;SDS011;15940;48.734;9.112;2022-09-27T14:01:13;2.43;;;1.00;;
9524;SDS011;15940;48.734;9.112;2022-09-27T14:03:47;0.80;;;0.53;;
9524;SDS011;15940;48.734;9.112;2022-09-27T14:06:19;1.20;;;0.60;;
9524;SDS011;15940;48.734;9.112;2022-09-27T14:08:50;0.90;;;0.90;;
9524;SDS011;15940;48.734;9.112;2022-09-27T14:13:41;1.37;;;1.00;;
9524;SDS011;15940;48.734;9.112;2022-09-27T14:16:12;1.07;;;0.80;;
9524;SDS011;15940;48.734;9.112;2022-09-27T14:18:42;0.70;;;0.70;;
9524;SDS011;15940;48.734;9.112;2022-09-27T14:21:18;0.63;;;0.50;;
9524;SDS011;15940;48.734;9.112;2022-09-27T14:23:53;0.80;;;0.80;;
9524;SDS011;15940;48.734;9.112;2022-09-27T14:27:03;1.07;;;0.90;;
9524;SDS011;15940;48.734;9.112;2022-09-27T14:29:39;0.90;;;0.90;;
9524;SDS011;15940;48.734;9.112;2022-09-27T14:32:11;0.80;;;0.73;;
9524;SDS011;15940;48.734;9.112;2022-09-27T14:34:40;0.70;;;0.70;;
9524;SDS011;15940;48.734;9.112;2022-09-27T14:37:13;0.73;;;0.73;;
9524;SDS011;15940;48.734;9.112;2022-09-27T14:39:54;1.00;;;0.80;;
9524;SDS011;15940;48.734;9.112;2022-09-27T14:42:30;0.77;;;0.77;;
9524;SDS011;15940;48.734;9.112;2022-09-27T14:45:04;1.43;;;1.00;;
9524;SDS011;15940;48.734;9.112;2022-09-27T14:47:44;0.90;;;0.90;;
9524;SDS011;15940;48.734;9.112;2022-09-27T14:50:15;1.10;;;0.87;;
9524;SDS011;15940;48.734;9.112;2022-09-27T14:52:48;0.93;;;0.80;;
9524;SDS011;15940;48.734;9.112;2022-09-27T14:55:20;0.73;;;0.73;;
9524;SDS011;15940;48.734;9.112;2022-09-27T14:57:49;0.93;;;0.83;;
9524;SDS011;15940;48.734;9.112;2022-09-27T15:00:21;0.80;;;0.80;;
9524;SDS011;15940;48.734;9.112;2022-09-27T15:02:50;0.60;;;0.60;;
9524;SDS011;15940;48.734;9.112;2022-09-27T15:05:20;0.87;;;0.70;;
9524;SDS011;15940;48.734;9.112;2022-09-27T15:07:50;1.50;;;0.40;;
9524;SDS011;15940;48.734;9.112;2022-09-27T15:10:20;0.60;;;0.60;;
9524;SDS011;15940;48.734;9.112;2022-09-27T15:12:51;0.47;;;0.47;;
9524;SDS011;15940;48.734;9.112;2022-09-27T15:15:25;0.57;;;0.57;;
9524;SDS011;15940;48.734;9.112;2022-09-27T15:17:56;0.60;;;0.60;;
9524;SDS011;15940;48.734;9.112;2022-09-27T15:20:25;0.50;;;0.43;;
9524;SDS011;15940;48.734;9.112;2022-09-27T15:22:56;0.63;;;0.63;;
9524;SDS011;15940;48.734;9.112;2022-09-27T15:25:26;1.27;;;0.63;;
9524;SDS011;15940;48.734;9.112;2022-09-27T15:27:59;0.80;;;0.80;;
9524;SDS011;15940;48.734;9.112;2022-09-27T15:30:34;0.80;;;0.80;;
9524;SDS011;15940;48.734;9.112;2022-09-27T15:33:03;0.63;;;0.63;;
9524;SDS011;15940;48.734;9.112;2022-09-27T15:35:33;2.57;;;0.63;;
9524;SDS011;15940;48.734;9.112;2022-09-27T15:41:02;0.60;;;0.60;;
9524;SDS011;15940;48.734;9.112;2022-09-27T15:43:37;0.67;;;0.63;;
9524;SDS011;15940;48.734;9.112;2022-09-27T15:49:19;0.67;;;0.67;;
9524;SDS011;15940;48.734;9.112;2022-09-27T15:51:59;3.27;;;0.80;;
9524;SDS011;15940;48.734;9.112;2022-09-27T15:54:27;0.73;;;0.73;;
9524;SDS011;15940;48.734;9.112;2022-09-27T15:56:59;2.47;;;0.70;;
9524;SDS011;15940;48.734;9.112;2022-09-27T15:59:30;0.70;;;0.70;;
9524;SDS011;15940;48.734;9.112;2022-09-27T16:02:01;2.80;;;0.70;;
9524;SDS011;15940;48.734;9.112;2022-09-27T16:04:35;2.17;;;1.00;;
9524;SDS011;15940;48.734;9.112;2022-09-27T16:07:03;14.43;;;1.43;;
9524;SDS011;15940;48.734;9.112;2022-09-27T16:09:33;0.73;;;0.40;;